createdAt,value
2017-05-23T00:00:06.837Z,7.3
2017-05-23T00:01:25.549Z,7.3
2017-05-23T00:02:44.212Z,7.3
2017-05-23T00:04:02.905Z,7.3
2017-05-23T00:05:21.629Z,7.3
2017-05-23T00:06:40.334Z,7.3
2017-05-23T00:07:59.072Z,7.4
2017-05-23T00:09:17.773Z,7.3
2017-05-23T00:10:36.439Z,7.4
2017-05-23T00:11:55.117Z,7.3
2017-05-23T00:13:13.822Z,7.3
2017-05-23T00:14:32.563Z,7.3
2017-05-23T00:15:51.224Z,7.3
2017-05-23T00:17:09.942Z,7.3
2017-05-23T00:18:28.630Z,7.2
2017-05-23T00:19:47.352Z,7.2
2017-05-23T00:21:06.040Z,7.2
2017-05-23T00:22:24.713Z,7.2
2017-05-23T00:23:43.380Z,7.2
2017-05-23T00:25:02.085Z,7.2
2017-05-23T00:26:20.749Z,7.2
2017-05-23T00:27:39.406Z,7.3
2017-05-23T00:28:58.089Z,7.3
2017-05-23T00:30:16.811Z,7.3
2017-05-23T00:31:35.482Z,7.4
2017-05-23T00:32:54.174Z,7.4
2017-05-23T00:34:12.847Z,7.3
2017-05-23T00:35:31.587Z,7.3
2017-05-23T00:36:50.321Z,7.4
2017-05-23T00:38:09.013Z,7.5
2017-05-23T00:39:27.675Z,7.6
2017-05-23T00:40:46.359Z,7.5
2017-05-23T00:42:05.018Z,7.5
2017-05-23T00:43:23.684Z,7.5
2017-05-23T00:44:42.434Z,7.4
2017-05-23T00:46:01.189Z,7.4
2017-05-23T00:47:19.860Z,7.4
2017-05-23T00:48:38.556Z,7.3
2017-05-23T00:49:57.217Z,7.3
2017-05-23T00:51:15.926Z,7.3
2017-05-23T00:52:34.593Z,7.3
2017-05-23T00:53:53.314Z,7.3
2017-05-23T00:55:11.976Z,7.3
2017-05-23T00:56:30.663Z,7.3
2017-05-23T00:57:49.334Z,7.3
2017-05-23T00:59:08.008Z,7.3
2017-05-23T01:00:26.715Z,7.3
2017-05-23T01:01:45.402Z,7.3
2017-05-23T01:03:04.117Z,7.3
2017-05-23T01:04:22.840Z,7.4
2017-05-23T01:05:41.556Z,7.3
2017-05-23T01:07:00.277Z,7.4
2017-05-23T01:08:18.973Z,7.3
2017-05-23T01:09:37.636Z,7.4
2017-05-23T01:10:56.329Z,7.4
2017-05-23T01:12:15.019Z,7.4
2017-05-23T01:13:33.669Z,7.4
2017-05-23T01:14:52.411Z,7.4
2017-05-23T01:16:11.114Z,7.4
2017-05-23T01:17:29.783Z,7.4
2017-05-23T01:18:48.446Z,7.4
2017-05-23T01:20:07.109Z,7.4
2017-05-23T01:21:25.771Z,7.4
2017-05-23T01:22:44.460Z,7.4
2017-05-23T01:24:03.131Z,7.4
2017-05-23T01:25:21.790Z,7.3
2017-05-23T01:26:40.510Z,7.3
2017-05-23T01:27:59.210Z,7.3
2017-05-23T01:29:17.890Z,7.3
2017-05-23T01:30:36.568Z,7.3
2017-05-23T01:31:55.268Z,7.2
2017-05-23T01:33:13.993Z,7.2
2017-05-23T01:34:32.695Z,7.2
2017-05-23T01:35:51.359Z,7.2
2017-05-23T01:37:10.073Z,7.2
2017-05-23T01:38:28.741Z,7.2
2017-05-23T01:39:47.414Z,7.3
2017-05-23T01:41:06.090Z,7.3
2017-05-23T01:42:24.757Z,7.3
2017-05-23T01:43:43.504Z,7.2
2017-05-23T01:45:02.180Z,7.3
2017-05-23T01:46:20.846Z,7.4
2017-05-23T01:47:39.580Z,7.4
2017-05-23T01:48:58.285Z,7.4
2017-05-23T01:50:16.958Z,7.4
2017-05-23T01:51:35.623Z,7.4
2017-05-23T01:52:54.344Z,7.4
2017-05-23T01:54:13.058Z,7.5
2017-05-23T01:55:31.737Z,7.5
2017-05-23T01:56:50.404Z,7.6
2017-05-23T01:58:09.099Z,7.6
2017-05-23T01:59:27.786Z,7.6
2017-05-23T02:00:46.462Z,7.6
2017-05-23T02:02:05.186Z,7.6
2017-05-23T02:03:23.884Z,7.6
2017-05-23T02:04:42.582Z,7.6
2017-05-23T02:06:01.295Z,7.6
2017-05-23T02:07:20.012Z,7.7
2017-05-23T02:08:38.686Z,7.7
2017-05-23T02:09:57.412Z,7.8
2017-05-23T02:11:16.077Z,7.8
2017-05-23T02:12:34.737Z,7.7
2017-05-23T02:13:53.425Z,7.7
2017-05-23T02:15:12.100Z,7.6
2017-05-23T02:16:30.801Z,7.6
2017-05-23T02:17:49.464Z,7.6
2017-05-23T02:19:08.170Z,7.6
2017-05-23T02:20:26.873Z,7.6
2017-05-23T02:21:45.571Z,7.6
2017-05-23T02:23:04.250Z,7.6
2017-05-23T02:24:22.909Z,7.7
2017-05-23T02:25:41.575Z,7.8
2017-05-23T02:27:00.272Z,7.9
2017-05-23T02:28:18.980Z,7.9
2017-05-23T02:29:37.646Z,7.8
2017-05-23T02:30:56.363Z,7.8
2017-05-23T02:32:15.059Z,7.8
2017-05-23T02:33:33.766Z,7.8
2017-05-23T02:34:52.453Z,7.8
2017-05-23T02:36:11.120Z,7.8
2017-05-23T02:37:29.782Z,7.8
2017-05-23T02:38:48.440Z,7.8
2017-05-23T02:40:07.149Z,7.7
2017-05-23T02:41:25.871Z,7.7
2017-05-23T02:42:44.558Z,7.8
2017-05-23T02:44:03.243Z,7.8
2017-05-23T02:45:21.921Z,7.8
2017-05-23T02:46:40.617Z,7.7
2017-05-23T02:47:59.289Z,7.7
2017-05-23T02:49:17.962Z,7.7
2017-05-23T02:50:36.634Z,7.7
2017-05-23T02:51:55.342Z,7.7
2017-05-23T02:53:14.085Z,7.7
2017-05-23T02:54:32.751Z,7.7
2017-05-23T02:55:51.424Z,7.7
2017-05-23T02:57:10.118Z,7.7
2017-05-23T02:58:28.790Z,7.7
2017-05-23T02:59:47.495Z,7.7
2017-05-23T03:01:06.222Z,7.8
2017-05-23T03:02:24.890Z,7.8
2017-05-23T03:03:43.555Z,7.8
2017-05-23T03:05:02.236Z,7.8
2017-05-23T03:06:20.972Z,7.8
2017-05-23T03:07:39.651Z,7.8
2017-05-23T03:08:58.324Z,7.9
2017-05-23T03:10:16.999Z,7.9
2017-05-23T03:11:35.668Z,7.9
2017-05-23T03:12:54.389Z,7.9
2017-05-23T03:14:13.055Z,7.9
2017-05-23T03:15:31.713Z,7.9
2017-05-23T03:16:50.372Z,7.9
2017-05-23T03:18:09.083Z,7.9
2017-05-23T03:19:27.799Z,7.9
2017-05-23T03:20:46.480Z,8
2017-05-23T03:22:05.158Z,8
2017-05-23T03:23:23.882Z,8.1
2017-05-23T03:24:42.557Z,8
2017-05-23T03:26:01.237Z,8.1
2017-05-23T03:27:19.902Z,8.1
2017-05-23T03:28:38.591Z,8.1
2017-05-23T03:29:57.311Z,8.1
2017-05-23T03:31:15.980Z,8.2
2017-05-23T03:32:34.678Z,8.1
2017-05-23T03:33:53.363Z,8.1
2017-05-23T03:35:12.019Z,8.1
2017-05-23T03:36:30.682Z,8.2
2017-05-23T03:37:49.369Z,8.2
2017-05-23T03:39:08.086Z,8.2
2017-05-23T03:40:26.755Z,8.2
2017-05-23T03:41:45.428Z,8.2
2017-05-23T03:43:04.123Z,8.2
2017-05-23T03:44:22.856Z,8.2
2017-05-23T03:45:41.569Z,8.2
2017-05-23T03:47:00.230Z,8.3
2017-05-23T03:48:18.962Z,8.4
2017-05-23T03:49:37.632Z,8.4
2017-05-23T03:50:56.332Z,8.4
2017-05-23T03:52:15.006Z,8.5
2017-05-23T03:53:33.699Z,8.5
2017-05-23T03:54:52.407Z,8.5
2017-05-23T03:56:11.078Z,8.5
2017-05-23T03:57:29.741Z,8.5
2017-05-23T03:58:48.456Z,8.5
2017-05-23T04:00:07.180Z,8.5
2017-05-23T04:01:25.891Z,8.5
2017-05-23T04:02:44.608Z,8.5
2017-05-23T04:04:03.267Z,8.5
2017-05-23T04:05:21.952Z,8.6
2017-05-23T04:06:40.621Z,8.6
2017-05-23T04:07:59.282Z,8.7
2017-05-23T04:09:17.974Z,8.8
2017-05-23T04:10:36.644Z,8.8
2017-05-23T04:11:55.360Z,8.8
2017-05-23T04:13:14.088Z,8.8
2017-05-23T04:14:32.749Z,8.8
2017-05-23T04:15:51.441Z,8.8
2017-05-23T04:17:10.130Z,8.8
2017-05-23T04:18:28.814Z,8.8
2017-05-23T04:19:47.482Z,8.9
2017-05-23T04:21:06.213Z,8.9
2017-05-23T04:22:24.875Z,9
2017-05-23T04:23:43.597Z,9
2017-05-23T04:25:02.339Z,9
2017-05-23T04:26:21.025Z,9
2017-05-23T04:27:39.722Z,9
2017-05-23T04:28:58.396Z,8.9
2017-05-23T04:30:17.061Z,8.9
2017-05-23T04:31:35.728Z,8.9
2017-05-23T04:32:54.390Z,9
2017-05-23T04:34:13.095Z,9
2017-05-23T04:35:31.753Z,9
2017-05-23T04:36:50.457Z,9
2017-05-23T04:38:09.138Z,9.1
2017-05-23T04:39:27.801Z,9.1
2017-05-23T04:40:46.492Z,9.2
2017-05-23T04:42:05.184Z,9.2
2017-05-23T04:43:23.873Z,9.3
2017-05-23T04:44:42.552Z,9.4
2017-05-23T04:46:01.218Z,9.5
2017-05-23T04:47:19.915Z,9.6
2017-05-23T04:48:38.634Z,9.6
2017-05-23T04:49:57.360Z,9.7
2017-05-23T04:51:16.053Z,9.8
2017-05-23T04:52:34.724Z,9.9
2017-05-23T04:53:53.378Z,9.9
2017-05-23T04:55:12.056Z,10
2017-05-23T04:56:30.763Z,10.1
2017-05-23T04:57:49.506Z,10.2
2017-05-23T04:59:08.197Z,10.3
2017-05-23T05:00:26.922Z,10.4
2017-05-23T05:01:45.601Z,10.5
2017-05-23T05:03:04.288Z,10.6
2017-05-23T05:04:23.016Z,10.7
2017-05-23T05:05:41.719Z,10.9
2017-05-23T05:07:00.413Z,11
2017-05-23T05:08:19.184Z,11.2
2017-05-23T05:09:37.862Z,11.3
2017-05-23T05:10:56.572Z,11.5
2017-05-23T05:12:15.282Z,11.6
2017-05-23T05:13:34.010Z,11.8
2017-05-23T05:14:52.683Z,12
2017-05-23T05:16:11.362Z,12.2
2017-05-23T05:17:30.086Z,12.4
2017-05-23T05:18:48.871Z,12.6
2017-05-23T05:20:07.576Z,12.8
2017-05-23T05:21:26.270Z,13.1
2017-05-23T05:22:44.957Z,13.4
2017-05-23T05:24:03.648Z,13.6
2017-05-23T05:25:22.411Z,13.8
2017-05-23T05:26:41.097Z,14
2017-05-23T05:27:59.802Z,14.2
2017-05-23T05:29:18.492Z,14.3
2017-05-23T05:30:37.224Z,14.5
2017-05-23T05:31:55.902Z,14.7
2017-05-23T05:33:14.588Z,14.8
2017-05-23T05:34:33.319Z,14.9
2017-05-23T05:35:52.014Z,14.9
2017-05-23T05:37:10.711Z,15
2017-05-23T05:38:29.388Z,15.1
2017-05-23T05:39:48.097Z,15.2
2017-05-23T05:41:06.777Z,15.4
2017-05-23T05:42:25.454Z,15.5
2017-05-23T05:43:44.165Z,15.7
2017-05-23T05:45:02.862Z,15.9
2017-05-23T05:46:21.571Z,16.1
2017-05-23T05:47:40.285Z,16.2
2017-05-23T05:48:59.003Z,16.2
2017-05-23T05:50:17.761Z,16.2
2017-05-23T05:51:36.439Z,16.1
2017-05-23T05:52:55.156Z,16
2017-05-23T05:54:13.853Z,15.9
2017-05-23T05:55:32.587Z,15.8
2017-05-23T05:56:51.265Z,15.7
2017-05-23T05:58:09.980Z,15.6
2017-05-23T05:59:28.695Z,15.6
2017-05-23T06:00:47.471Z,15.6
2017-05-23T06:02:06.147Z,15.6
2017-05-23T06:03:24.865Z,15.6
2017-05-23T06:04:43.574Z,15.6
2017-05-23T06:06:02.329Z,15.6
2017-05-23T06:07:21.012Z,15.6
2017-05-23T06:08:39.686Z,15.6
2017-05-23T06:09:58.396Z,15.6
2017-05-23T06:11:17.098Z,15.6
2017-05-23T06:12:35.818Z,15.6
2017-05-23T06:13:54.495Z,15.6
2017-05-23T06:15:13.201Z,15.7
2017-05-23T06:16:31.922Z,15.7
2017-05-23T06:17:50.604Z,15.8
2017-05-23T06:19:09.319Z,15.8
2017-05-23T06:20:28.036Z,15.8
2017-05-23T06:21:46.728Z,15.8
2017-05-23T06:23:05.405Z,15.9
2017-05-23T06:24:24.107Z,16
2017-05-23T06:25:42.788Z,16.1
2017-05-23T06:27:01.597Z,16.2
2017-05-23T06:28:20.328Z,16.3
2017-05-23T06:29:39.037Z,16.5
2017-05-23T06:30:57.732Z,16.6
2017-05-23T06:32:16.451Z,16.7
2017-05-23T06:33:35.126Z,16.9
2017-05-23T06:34:53.829Z,16.9
2017-05-23T06:36:12.507Z,16.9
2017-05-23T06:37:31.217Z,17
2017-05-23T06:38:49.896Z,17
2017-05-23T06:40:08.578Z,16.9
2017-05-23T06:41:27.312Z,16.9
2017-05-23T06:42:46.003Z,16.9
2017-05-23T06:44:04.725Z,16.8
2017-05-23T06:45:23.413Z,16.8
2017-05-23T06:46:42.136Z,16.8
2017-05-23T06:48:00.894Z,16.8
2017-05-23T06:49:19.578Z,16.8
2017-05-23T06:50:38.261Z,16.8
2017-05-23T06:51:56.934Z,16.8
2017-05-23T06:53:15.618Z,16.8
2017-05-23T06:54:34.320Z,16.8
2017-05-23T06:55:53.052Z,16.8
2017-05-23T06:57:11.772Z,16.9
2017-05-23T06:58:30.508Z,17
2017-05-23T06:59:49.196Z,17.1
2017-05-23T07:01:07.907Z,17.4
2017-05-23T07:02:26.588Z,17.6
2017-05-23T07:03:45.356Z,17.7
2017-05-23T07:05:04.067Z,17.9
2017-05-23T07:06:22.744Z,18
2017-05-23T07:07:41.438Z,18.1
2017-05-23T07:09:00.212Z,18.2
2017-05-23T07:10:18.956Z,18.3
2017-05-23T07:11:37.636Z,18.5
2017-05-23T07:12:56.344Z,18.6
2017-05-23T07:14:15.030Z,18.8
2017-05-23T07:15:33.760Z,18.9
2017-05-23T07:16:52.438Z,19.1
2017-05-23T07:18:11.137Z,19.3
2017-05-23T07:19:29.827Z,19.5
2017-05-23T07:20:48.516Z,19.6
2017-05-23T07:22:07.254Z,19.7
2017-05-23T07:23:25.961Z,19.7
2017-05-23T07:24:44.662Z,19.6
2017-05-23T07:26:03.347Z,19.5
2017-05-23T07:27:22.037Z,19.5
2017-05-23T07:28:40.721Z,19.5
2017-05-23T07:29:59.408Z,19.5
2017-05-23T07:31:18.127Z,19.4
2017-05-23T07:32:36.810Z,19.2
2017-05-23T07:33:55.514Z,19.1
2017-05-23T07:35:14.235Z,19
2017-05-23T07:36:32.908Z,18.8
2017-05-23T07:37:51.644Z,18.6
2017-05-23T07:39:10.368Z,18.4
2017-05-23T07:40:29.088Z,18.3
2017-05-23T07:41:47.826Z,18.1
2017-05-23T07:43:06.499Z,18
2017-05-23T07:44:25.181Z,18
2017-05-23T07:45:43.929Z,17.9
2017-05-23T07:47:02.602Z,18
2017-05-23T07:48:21.309Z,18.1
2017-05-23T07:49:40.019Z,18.3
2017-05-23T07:50:58.714Z,18.4
2017-05-23T07:52:17.459Z,18.4
2017-05-23T07:53:36.148Z,18.5
2017-05-23T07:54:54.835Z,18.6
2017-05-23T07:56:13.598Z,18.7
2017-05-23T07:57:32.336Z,18.9
2017-05-23T07:58:51.010Z,19
2017-05-23T08:00:09.740Z,19
2017-05-23T08:01:28.481Z,19.1
2017-05-23T08:02:47.213Z,19.1
2017-05-23T08:04:05.900Z,19.2
2017-05-23T08:05:24.638Z,19.3
2017-05-23T08:06:43.351Z,19.4
2017-05-23T08:08:02.037Z,19.4
2017-05-23T08:09:20.720Z,19.4
2017-05-23T08:10:39.427Z,19.5
2017-05-23T08:11:58.122Z,19.6
2017-05-23T08:13:16.828Z,19.7
2017-05-23T08:14:35.560Z,19.8
2017-05-23T08:15:54.241Z,19.8
2017-05-23T08:17:13.012Z,19.7
2017-05-23T08:18:31.695Z,19.5
2017-05-23T08:19:50.411Z,19.4
2017-05-23T08:21:09.156Z,19.5
2017-05-23T08:22:27.912Z,19.5
2017-05-23T08:23:46.601Z,19.7
2017-05-23T08:25:05.329Z,19.9
2017-05-23T08:26:24.071Z,20.1
2017-05-23T08:27:42.784Z,20.4
2017-05-23T08:29:01.465Z,20.6
2017-05-23T08:30:20.138Z,20.7
2017-05-23T08:31:38.854Z,20.8
2017-05-23T08:32:57.608Z,20.8
2017-05-23T08:34:16.324Z,20.9
2017-05-23T08:35:35.007Z,21
2017-05-23T08:36:53.709Z,21.2
2017-05-23T08:38:12.431Z,21.3
2017-05-23T08:39:31.111Z,21.5
2017-05-23T08:40:49.844Z,21.8
2017-05-23T08:42:08.575Z,22.1
2017-05-23T08:43:27.291Z,22.3
2017-05-23T08:44:45.978Z,22.5
2017-05-23T08:46:04.654Z,22.6
2017-05-23T08:47:23.332Z,22.7
2017-05-23T08:48:42.046Z,22.7
2017-05-23T08:50:00.728Z,22.7
2017-05-23T08:51:19.443Z,22.7
2017-05-23T08:52:38.123Z,22.5
2017-05-23T08:53:56.841Z,22.2
2017-05-23T08:55:15.582Z,21.8
2017-05-23T08:56:34.269Z,21.4
2017-05-23T08:57:53.000Z,21.1
2017-05-23T08:59:11.718Z,20.9
2017-05-23T09:00:30.419Z,20.8
2017-05-23T09:01:49.127Z,20.8
2017-05-23T09:03:07.813Z,20.9
2017-05-23T09:04:26.523Z,20.8
2017-05-23T09:05:45.212Z,20.6
2017-05-23T09:07:03.906Z,20.7
2017-05-23T09:08:22.597Z,20.9
2017-05-23T09:09:41.351Z,21.2
2017-05-23T09:11:00.042Z,21.3
2017-05-23T09:12:18.724Z,21.5
2017-05-23T09:13:37.494Z,21.6
2017-05-23T09:14:56.199Z,21.8
2017-05-23T09:16:14.879Z,22
2017-05-23T09:17:33.567Z,22.3
2017-05-23T09:18:52.244Z,22.4
2017-05-23T09:20:10.954Z,22.8
2017-05-23T09:21:29.626Z,23.1
2017-05-23T09:22:48.347Z,23.1
2017-05-23T09:24:07.026Z,23.2
2017-05-23T09:25:25.789Z,23.6
2017-05-23T09:26:44.479Z,23.6
2017-05-23T09:28:03.164Z,23.5
2017-05-23T09:29:21.876Z,23.3
2017-05-23T09:30:40.588Z,22.9
2017-05-23T09:31:59.277Z,22.7
2017-05-23T09:33:17.985Z,22.7
2017-05-23T09:34:36.658Z,22.7
2017-05-23T09:35:55.411Z,22.6
2017-05-23T09:37:14.116Z,22.4
2017-05-23T09:38:32.806Z,22.4
2017-05-23T09:39:51.530Z,22.5
2017-05-23T09:41:10.229Z,22.3
2017-05-23T09:42:28.971Z,22.1
2017-05-23T09:43:47.690Z,22
2017-05-23T09:45:06.372Z,22.1
2017-05-23T09:46:25.078Z,22.1
2017-05-23T09:47:43.815Z,22.3
2017-05-23T09:49:02.504Z,22.2
2017-05-23T09:50:21.192Z,22.3
2017-05-23T09:51:39.885Z,22.4
2017-05-23T09:52:58.620Z,22.5
2017-05-23T09:54:17.357Z,22.8
2017-05-23T09:55:36.066Z,23.1
2017-05-23T09:56:54.753Z,23.4
2017-05-23T09:58:13.429Z,23.7
2017-05-23T09:59:32.106Z,24
2017-05-23T10:00:50.789Z,24
2017-05-23T10:02:09.480Z,24.1
2017-05-23T10:03:28.167Z,24
2017-05-23T10:04:46.854Z,24.4
2017-05-23T10:06:05.584Z,25
2017-05-23T10:07:24.356Z,25.7
2017-05-23T10:08:43.064Z,26.1
2017-05-23T10:10:01.812Z,26.2
2017-05-23T10:11:20.504Z,26.3
2017-05-23T10:12:39.218Z,26.2
2017-05-23T10:13:57.898Z,26
2017-05-23T10:15:16.593Z,25.7
2017-05-23T10:16:35.346Z,25.4
2017-05-23T10:17:54.091Z,25.1
2017-05-23T10:19:12.812Z,25.3
2017-05-23T10:20:31.488Z,25.9
2017-05-23T10:21:50.177Z,26.4
2017-05-23T10:23:08.889Z,26.3
2017-05-23T10:24:27.573Z,26.5
2017-05-23T10:25:46.266Z,26.6
2017-05-23T10:27:04.975Z,26.7
2017-05-23T10:28:23.726Z,26.6
2017-05-23T10:29:42.435Z,26.6
2017-05-23T10:31:01.138Z,26.4
2017-05-23T10:32:19.822Z,26.4
2017-05-23T10:33:38.577Z,26.2
2017-05-23T10:34:57.315Z,26.3
2017-05-23T10:36:16.004Z,26.2
2017-05-23T10:37:34.685Z,25.9
2017-05-23T10:38:53.426Z,25.8
2017-05-23T10:40:12.113Z,25.6
2017-05-23T10:41:30.834Z,25.7
2017-05-23T10:42:49.601Z,25.6
2017-05-23T10:44:08.356Z,25.8
2017-05-23T10:45:27.032Z,25.8
2017-05-23T10:46:45.707Z,25.8
2017-05-23T10:48:04.405Z,25.9
2017-05-23T10:49:23.124Z,26.2
2017-05-23T10:50:41.801Z,26.6
2017-05-23T10:52:00.512Z,27.2
2017-05-23T10:53:19.199Z,27.1
2017-05-23T10:54:37.913Z,26.9
2017-05-23T10:55:56.624Z,26.7
2017-05-23T10:57:15.332Z,27
2017-05-23T10:58:34.067Z,26.9
2017-05-23T10:59:52.773Z,27.1
2017-05-23T11:01:11.448Z,27.2
2017-05-23T11:02:30.135Z,27.5
2017-05-23T11:03:48.839Z,27.6
2017-05-23T11:05:07.579Z,27.4
2017-05-23T11:06:26.287Z,26.9
2017-05-23T11:07:44.971Z,26.6
2017-05-23T11:09:03.658Z,26.2
2017-05-23T11:10:22.436Z,26.2
2017-05-23T11:11:41.166Z,26.2
2017-05-23T11:12:59.852Z,26.3
2017-05-23T11:14:18.595Z,26.6
2017-05-23T11:15:37.361Z,27.1
2017-05-23T11:16:56.059Z,27.5
2017-05-23T11:18:14.738Z,28.1
2017-05-23T11:19:33.427Z,28.7
2017-05-23T11:20:52.112Z,29
2017-05-23T11:22:10.880Z,29.2
2017-05-23T11:23:29.578Z,29.3
2017-05-23T11:24:48.313Z,28.7
2017-05-23T11:26:06.998Z,28
2017-05-23T11:27:25.695Z,27.2
2017-05-23T11:28:44.392Z,26.7
2017-05-23T11:30:03.074Z,26.7
2017-05-23T11:31:21.752Z,26.9
2017-05-23T11:32:40.455Z,26.9
2017-05-23T11:33:59.151Z,26.9
2017-05-23T11:35:17.878Z,26.7
2017-05-23T11:36:36.620Z,26.8
2017-05-23T11:37:55.359Z,27
2017-05-23T11:39:14.108Z,27.6
2017-05-23T11:40:32.801Z,27.9
2017-05-23T11:41:51.470Z,28.1
2017-05-23T11:43:10.157Z,28.2
2017-05-23T11:44:28.883Z,28.8
2017-05-23T11:45:47.578Z,29.3
2017-05-23T11:47:06.253Z,29.3
2017-05-23T11:48:24.937Z,29.2
2017-05-23T11:49:43.672Z,28.9
2017-05-23T11:51:02.443Z,28.6
2017-05-23T11:52:21.162Z,28.4
2017-05-23T11:53:39.873Z,28.6
2017-05-23T11:54:58.571Z,29.2
2017-05-23T11:56:17.311Z,29.5
2017-05-23T11:57:35.990Z,29.8
2017-05-23T11:58:54.672Z,30
2017-05-23T12:00:13.387Z,31.2
2017-05-23T12:01:32.090Z,32.1
2017-05-23T12:02:50.772Z,32.4
2017-05-23T12:04:09.475Z,34.4
2017-05-23T12:05:28.235Z,34.6
2017-05-23T12:06:46.923Z,34.5
2017-05-23T12:08:05.614Z,34.5
2017-05-23T12:09:24.342Z,34.4
2017-05-23T12:10:43.037Z,34.4
2017-05-23T12:12:01.771Z,34.5
2017-05-23T12:13:20.507Z,34.5
2017-05-23T12:14:39.195Z,34.4
2017-05-23T12:15:57.921Z,34.3
2017-05-23T12:17:16.604Z,32.8
2017-05-23T12:18:35.332Z,32.2
2017-05-23T12:19:54.047Z,34
2017-05-23T12:21:12.737Z,34.3
2017-05-23T12:22:31.444Z,34.3
2017-05-23T12:23:50.132Z,34
2017-05-23T12:25:08.840Z,31.6
2017-05-23T12:26:27.611Z,29.9
2017-05-23T12:27:46.347Z,28.6
2017-05-23T12:29:05.073Z,28.5
2017-05-23T12:30:23.805Z,32
2017-05-23T12:31:42.494Z,34.4
2017-05-23T12:33:01.176Z,34.9
2017-05-23T12:34:19.875Z,35.2
2017-05-23T12:35:38.569Z,35.3
2017-05-23T12:36:57.322Z,35.5
2017-05-23T12:38:16.038Z,35.4
2017-05-23T12:39:34.720Z,35.2
2017-05-23T12:40:53.399Z,35.1
2017-05-23T12:42:12.134Z,35.1
2017-05-23T12:43:30.869Z,35
2017-05-23T12:44:49.583Z,35
2017-05-23T12:46:08.274Z,35
2017-05-23T12:47:26.976Z,34.9
2017-05-23T12:48:45.660Z,34.9
2017-05-23T12:50:04.355Z,34.9
2017-05-23T12:51:23.048Z,34.9
2017-05-23T12:52:41.757Z,34.7
2017-05-23T12:54:00.497Z,34.6
2017-05-23T12:55:19.179Z,34.6
2017-05-23T12:56:37.856Z,34.6
2017-05-23T12:57:56.594Z,34.5
2017-05-23T12:59:15.334Z,33.9
2017-05-23T13:00:34.048Z,32.5
2017-05-23T13:01:52.732Z,32.2
2017-05-23T13:03:11.443Z,32.5
2017-05-23T13:04:30.162Z,32.7
2017-05-23T13:05:48.875Z,32.9
2017-05-23T13:07:07.578Z,32.7
2017-05-23T13:08:26.259Z,34.4
2017-05-23T13:09:45.227Z,34.5
2017-05-23T13:11:04.030Z,34.6
2017-05-23T13:12:22.738Z,34.6
2017-05-23T13:13:41.450Z,34.5
2017-05-23T13:15:00.125Z,34.7
2017-05-23T13:16:18.879Z,34.9
2017-05-23T13:17:37.571Z,35
2017-05-23T13:18:56.332Z,35.2
2017-05-23T13:20:15.018Z,35.2
2017-05-23T13:21:33.699Z,35.2
2017-05-23T13:22:52.445Z,34.9
2017-05-23T13:24:11.158Z,34.5
2017-05-23T13:25:29.852Z,34.1
2017-05-23T13:26:48.567Z,32.9
2017-05-23T13:28:07.254Z,32.2
2017-05-23T13:29:25.979Z,31.6
2017-05-23T13:30:44.660Z,32.6
2017-05-23T13:32:03.372Z,34.3
2017-05-23T13:33:22.052Z,34.6
2017-05-23T13:34:40.760Z,34.7
2017-05-23T13:35:59.450Z,34.7
2017-05-23T13:37:18.139Z,34.8
2017-05-23T13:38:36.857Z,34.7
2017-05-23T13:39:55.596Z,34.6
2017-05-23T13:41:14.289Z,34.7
2017-05-23T13:42:32.984Z,34.5
2017-05-23T13:43:51.713Z,34.5
2017-05-23T13:45:10.439Z,34.5
2017-05-23T13:46:29.177Z,34.5
2017-05-23T13:47:47.866Z,34.6
2017-05-23T13:49:06.566Z,34.6
2017-05-23T13:50:25.309Z,34.5
2017-05-23T13:51:44.054Z,34.6
2017-05-23T13:53:02.773Z,34.6
2017-05-23T13:54:21.504Z,34.5
2017-05-23T13:55:40.221Z,34.4
2017-05-23T13:56:58.942Z,34.3
2017-05-23T13:58:17.663Z,34
2017-05-23T13:59:36.358Z,33.5
2017-05-23T14:00:55.081Z,33.4
2017-05-23T14:02:13.771Z,33.7
2017-05-23T14:03:32.507Z,33.9
2017-05-23T14:04:51.237Z,33.8
2017-05-23T14:06:10.011Z,33.7
2017-05-23T14:07:28.699Z,33.7
2017-05-23T14:08:47.468Z,34.3
2017-05-23T14:10:06.146Z,34.3
2017-05-23T14:11:24.836Z,34.4
2017-05-23T14:12:43.601Z,34.4
2017-05-23T14:14:02.337Z,34.5
2017-05-23T14:15:21.051Z,34.6
2017-05-23T14:16:39.742Z,34.5
2017-05-23T14:17:58.428Z,34.4
2017-05-23T14:19:17.111Z,34.2
2017-05-23T14:20:35.795Z,33.6
2017-05-23T14:21:54.507Z,33.3
2017-05-23T14:23:13.183Z,32.7
2017-05-23T14:24:31.857Z,31.8
2017-05-23T14:25:50.561Z,31.6
2017-05-23T14:27:09.266Z,32.1
2017-05-23T14:28:27.971Z,32.8
2017-05-23T14:29:46.656Z,33.5
2017-05-23T14:31:05.339Z,34.2
2017-05-23T14:32:24.075Z,33.7
2017-05-23T14:33:42.798Z,33.9
2017-05-23T14:35:01.483Z,33.7
2017-05-23T14:36:20.173Z,33.2
2017-05-23T14:37:38.891Z,32.3
2017-05-23T14:38:57.574Z,31.6
2017-05-23T14:40:16.253Z,30.9
2017-05-23T14:41:34.935Z,30.4
2017-05-23T14:42:53.641Z,30.1
2017-05-23T14:44:12.406Z,29.9
2017-05-23T14:45:31.090Z,29.8
2017-05-23T14:46:49.774Z,29.6
2017-05-23T14:48:08.483Z,30.3
2017-05-23T14:49:27.219Z,30.8
2017-05-23T14:50:45.911Z,30.7
2017-05-23T14:52:04.594Z,30.2
2017-05-23T14:53:23.283Z,30.3
2017-05-23T14:54:41.969Z,30.2
2017-05-23T14:56:00.652Z,30.2
2017-05-23T14:57:19.345Z,29.9
2017-05-23T14:58:38.104Z,29.5
2017-05-23T14:59:56.794Z,29.5
2017-05-23T15:01:15.478Z,29.8
2017-05-23T15:02:34.182Z,29.6
2017-05-23T15:03:52.876Z,29.4
2017-05-23T15:05:11.621Z,29.4
2017-05-23T15:06:30.330Z,29.2
2017-05-23T15:07:49.056Z,28.6
2017-05-23T15:09:07.779Z,28.4
2017-05-23T15:10:26.509Z,28
2017-05-23T15:11:45.200Z,27.7
2017-05-23T15:13:03.907Z,27.4
2017-05-23T15:14:22.586Z,27.3
2017-05-23T15:15:41.329Z,27
2017-05-23T15:17:00.036Z,26.9
2017-05-23T15:18:18.739Z,26.9
2017-05-23T15:19:37.461Z,26.9
2017-05-23T15:20:56.145Z,26.6
2017-05-23T15:22:14.832Z,26.5
2017-05-23T15:23:33.565Z,26.2
2017-05-23T15:24:52.278Z,26.3
2017-05-23T15:26:11.006Z,26.6
2017-05-23T15:27:29.680Z,26.9
2017-05-23T15:28:48.360Z,27
2017-05-23T15:30:07.118Z,27
2017-05-23T15:31:25.853Z,27.3
2017-05-23T15:32:44.580Z,27.2
2017-05-23T15:34:03.267Z,27.2
2017-05-23T15:35:21.994Z,27.2
2017-05-23T15:36:40.701Z,27.3
2017-05-23T15:37:59.383Z,27.6
2017-05-23T15:39:18.095Z,28
2017-05-23T15:40:36.845Z,28.2
2017-05-23T15:41:55.584Z,28.4
2017-05-23T15:43:14.279Z,28
2017-05-23T15:44:32.980Z,27.9
2017-05-23T15:45:51.670Z,27.9
2017-05-23T15:47:10.374Z,27.9
2017-05-23T15:48:29.103Z,27.8
2017-05-23T15:49:47.776Z,27.7
2017-05-23T15:51:06.465Z,27.5
2017-05-23T15:52:25.140Z,27.4
2017-05-23T15:53:43.843Z,27.3
2017-05-23T15:55:02.562Z,27.4
2017-05-23T15:56:21.281Z,27.4
2017-05-23T15:57:39.981Z,27.6
2017-05-23T15:58:58.701Z,28
2017-05-23T16:00:17.418Z,28
2017-05-23T16:01:36.172Z,27.6
2017-05-23T16:02:54.884Z,27.5
2017-05-23T16:04:13.561Z,27.8
2017-05-23T16:05:32.278Z,28.3
2017-05-23T16:06:50.965Z,28.5
2017-05-23T16:08:09.639Z,28.7
2017-05-23T16:09:28.344Z,28.5
2017-05-23T16:10:47.015Z,28.2
2017-05-23T16:12:05.738Z,27.6
2017-05-23T16:13:24.465Z,27.2
2017-05-23T16:14:43.145Z,27
2017-05-23T16:16:01.827Z,26.7
2017-05-23T16:17:20.506Z,26.7
2017-05-23T16:18:39.245Z,26.8
2017-05-23T16:19:57.929Z,27.1
2017-05-23T16:21:16.607Z,27.6
2017-05-23T16:22:35.382Z,27.6
2017-05-23T16:23:54.086Z,27.4
2017-05-23T16:25:12.763Z,27.2
2017-05-23T16:26:31.441Z,27
2017-05-23T16:27:50.137Z,26.9
2017-05-23T16:29:08.896Z,26.5
2017-05-23T16:30:27.582Z,26.2
2017-05-23T16:31:46.289Z,26.1
2017-05-23T16:33:05.006Z,26
2017-05-23T16:34:23.709Z,25.9
2017-05-23T16:35:42.457Z,25.5
2017-05-23T16:37:01.150Z,25.2
2017-05-23T16:38:19.879Z,24.9
2017-05-23T16:39:38.562Z,24.6
2017-05-23T16:40:57.301Z,24.4
2017-05-23T16:42:15.993Z,24.1
2017-05-23T16:43:34.710Z,23.9
2017-05-23T16:44:53.394Z,23.7
2017-05-23T16:46:12.077Z,23.5
2017-05-23T16:47:30.769Z,23.4
2017-05-23T16:48:49.493Z,23.3
2017-05-23T16:50:08.200Z,23.2
2017-05-23T16:51:26.882Z,23.1
2017-05-23T16:52:45.613Z,22.9
2017-05-23T16:54:04.367Z,22.8
2017-05-23T16:55:23.050Z,22.7
2017-05-23T16:56:41.735Z,22.6
2017-05-23T16:58:00.416Z,22.6
2017-05-23T16:59:19.131Z,22.6
2017-05-23T17:00:37.824Z,22.6
2017-05-23T17:01:56.535Z,22.6
2017-05-23T17:03:15.217Z,22.6
2017-05-23T17:04:33.957Z,22.6
2017-05-23T17:05:52.670Z,22.4
2017-05-23T17:07:11.350Z,22.4
2017-05-23T17:08:30.070Z,22.1
2017-05-23T17:09:48.820Z,22
2017-05-23T17:11:07.501Z,21.9
2017-05-23T17:12:26.181Z,21.9
2017-05-23T17:13:44.859Z,21.9
2017-05-23T17:15:03.628Z,22
2017-05-23T17:16:22.316Z,22.1
2017-05-23T17:17:41.008Z,22.2
2017-05-23T17:18:59.689Z,22.3
2017-05-23T17:20:18.384Z,22.3
2017-05-23T17:21:37.103Z,22.3
2017-05-23T17:22:55.811Z,22.4
2017-05-23T17:24:14.495Z,22.3
2017-05-23T17:25:33.250Z,22.2
2017-05-23T17:26:51.932Z,22.2
2017-05-23T17:28:10.661Z,22.2
2017-05-23T17:29:29.341Z,22.1
2017-05-23T17:30:48.051Z,22
2017-05-23T17:32:06.780Z,22
2017-05-23T17:33:25.457Z,22
2017-05-23T17:34:44.203Z,21.8
2017-05-23T17:36:02.912Z,21.7
2017-05-23T17:37:21.641Z,21.6
2017-05-23T17:38:40.354Z,21.5
2017-05-23T17:39:59.077Z,21.5
2017-05-23T17:41:17.793Z,21.5
2017-05-23T17:42:36.476Z,21.4